createdAt,value
2023-01-23T00:00:03.326Z,13.40
2023-01-23T00:02:31.589Z,14.30
2023-01-23T00:04:59.539Z,12.60
2023-01-23T00:07:27.640Z,13.90
2023-01-23T00:09:55.390Z,13.73
2023-01-23T00:12:23.144Z,13.43
2023-01-23T00:14:52.378Z,13.13
2023-01-23T00:17:20.109Z,13.40
2023-01-23T00:19:47.825Z,12.70
2023-01-23T00:22:15.962Z,13.73
2023-01-23T00:24:43.792Z,13.53
2023-01-23T00:27:11.614Z,14.50
2023-01-23T00:29:39.388Z,13.73
2023-01-23T00:32:08.510Z,15.00
2023-01-23T00:34:36.222Z,16.03
2023-01-23T00:37:04.049Z,16.33
2023-01-23T00:39:31.899Z,14.20
2023-01-23T00:41:59.653Z,13.33
2023-01-23T00:44:27.407Z,13.50
2023-01-23T00:46:55.122Z,13.53
2023-01-23T00:49:24.779Z,13.90
2023-01-23T00:51:53.079Z,14.20
2023-01-23T00:54:21.645Z,14.77
2023-01-23T00:56:49.701Z,14.70
2023-01-23T00:59:17.494Z,14.00
2023-01-23T01:01:45.935Z,13.13
2023-01-23T01:04:13.933Z,14.53
2023-01-23T01:06:43.143Z,14.03
2023-01-23T01:09:10.877Z,13.77
2023-01-23T01:11:38.985Z,12.67
2023-01-23T01:14:06.819Z,14.00
2023-01-23T01:16:34.703Z,14.17
2023-01-23T01:19:02.707Z,13.83
2023-01-23T01:21:30.478Z,13.80
2023-01-23T01:23:59.572Z,13.20
2023-01-23T01:26:27.385Z,12.77
2023-01-23T01:28:55.131Z,13.80
2023-01-23T01:31:23.063Z,13.77
2023-01-23T01:33:50.951Z,12.83
2023-01-23T01:36:22.222Z,13.70
2023-01-23T01:38:50.152Z,14.20
2023-01-23T01:41:19.346Z,13.97
2023-01-23T01:43:47.172Z,14.13
2023-01-23T01:46:22.130Z,14.57
2023-01-23T01:49:00.133Z,13.87
2023-01-23T01:51:32.328Z,14.30
2023-01-23T01:54:07.718Z,14.67
2023-01-23T01:56:42.393Z,14.03
2023-01-23T01:59:12.260Z,14.27
2023-01-23T02:01:41.922Z,14.87
2023-01-23T02:04:10.839Z,14.00
2023-01-23T02:06:38.618Z,14.87
2023-01-23T02:09:12.032Z,13.10
2023-01-23T02:11:41.406Z,13.37
2023-01-23T02:14:10.305Z,13.87
2023-01-23T02:16:43.697Z,14.77
2023-01-23T02:19:20.711Z,14.10
2023-01-23T02:21:52.243Z,13.73
2023-01-23T02:24:27.285Z,14.07
2023-01-23T02:26:57.144Z,13.83
2023-01-23T02:29:25.824Z,14.70
2023-01-23T02:31:56.205Z,14.67
2023-01-23T02:34:26.130Z,14.13
2023-01-23T02:36:54.157Z,13.83
2023-01-23T02:39:22.257Z,14.20
2023-01-23T02:41:52.438Z,15.30
2023-01-23T02:44:26.291Z,15.23
2023-01-23T02:46:54.189Z,14.67
2023-01-23T02:49:23.002Z,15.20
2023-01-23T02:51:51.082Z,14.53
2023-01-23T02:54:18.878Z,15.57
2023-01-23T02:56:47.080Z,14.13
2023-01-23T02:59:32.102Z,15.33
2023-01-23T03:02:01.515Z,14.97
2023-01-23T03:04:29.335Z,15.27
2023-01-23T03:06:57.098Z,15.37
2023-01-23T03:09:24.834Z,14.70
2023-01-23T03:11:52.673Z,14.77
2023-01-23T03:14:24.162Z,13.20
2023-01-23T03:16:53.957Z,14.37
2023-01-23T03:19:25.028Z,14.53
2023-01-23T03:21:52.908Z,15.50
2023-01-23T03:24:21.607Z,15.07
2023-01-23T03:26:50.835Z,15.13
2023-01-23T03:29:38.705Z,15.43
2023-01-23T03:32:07.329Z,15.23
2023-01-23T03:34:36.642Z,14.97
2023-01-23T03:37:04.857Z,15.43
2023-01-23T03:39:50.118Z,14.43
2023-01-23T03:42:18.325Z,14.77
2023-01-23T03:44:46.140Z,14.40
2023-01-23T03:47:13.871Z,15.07
2023-01-23T03:49:42.944Z,14.70
2023-01-23T03:52:10.734Z,14.03
2023-01-23T03:54:38.458Z,15.40
2023-01-23T03:57:06.238Z,13.97
2023-01-23T03:59:34.107Z,16.03
2023-01-23T04:02:04.849Z,14.33
2023-01-23T04:04:32.706Z,15.23
2023-01-23T04:07:02.813Z,15.13
2023-01-23T04:09:31.176Z,15.67
2023-01-23T04:12:00.432Z,14.67
2023-01-23T04:14:30.556Z,16.13
2023-01-23T04:16:59.309Z,14.90
2023-01-23T04:19:27.036Z,15.33
2023-01-23T04:21:54.827Z,15.50
2023-01-23T04:24:24.100Z,15.70
2023-01-23T04:26:52.049Z,15.07
2023-01-23T04:29:19.842Z,15.93
2023-01-23T04:31:47.949Z,15.27
2023-01-23T04:34:15.837Z,14.40
2023-01-23T04:36:43.628Z,14.57
2023-01-23T04:39:11.453Z,15.00
2023-01-23T04:41:40.575Z,14.47
2023-01-23T04:44:21.028Z,15.00
2023-01-23T04:46:49.843Z,15.60
2023-01-23T04:49:18.707Z,15.80
2023-01-23T04:51:48.053Z,15.27
2023-01-23T04:54:16.097Z,15.63
2023-01-23T04:56:45.598Z,15.23
2023-01-23T04:59:14.040Z,14.53
2023-01-23T05:01:41.744Z,15.23
2023-01-23T05:04:09.568Z,14.87
2023-01-23T05:06:37.548Z,15.17
2023-01-23T05:09:05.551Z,14.33
2023-01-23T05:11:33.285Z,15.47
2023-01-23T05:14:02.558Z,16.07
2023-01-23T05:16:30.264Z,14.43
2023-01-23T05:18:58.015Z,15.87
2023-01-23T05:21:25.759Z,14.57
2023-01-23T05:23:53.500Z,15.63
2023-01-23T05:26:21.537Z,15.23
2023-01-23T05:28:49.314Z,15.53
2023-01-23T05:31:18.560Z,16.33
2023-01-23T05:33:46.351Z,15.50
2023-01-23T05:36:14.070Z,15.13
2023-01-23T05:38:41.777Z,17.07
2023-01-23T05:41:09.494Z,19.13
2023-01-23T05:43:37.229Z,19.93
2023-01-23T05:46:05.217Z,22.67
2023-01-23T05:48:34.353Z,19.03
2023-01-23T05:51:03.948Z,16.70
2023-01-23T05:53:31.690Z,15.80
2023-01-23T05:55:59.404Z,16.33
2023-01-23T05:58:27.209Z,15.23
2023-01-23T06:00:55.676Z,15.57
2023-01-23T06:03:23.450Z,16.47
2023-01-23T06:05:52.596Z,15.63
2023-01-23T06:08:20.303Z,16.00
2023-01-23T06:10:48.141Z,16.27
2023-01-23T06:13:15.926Z,16.37
2023-01-23T06:15:43.712Z,15.87
2023-01-23T06:18:11.559Z,16.83
2023-01-23T06:20:39.288Z,16.93
2023-01-23T06:23:08.328Z,16.50
2023-01-23T06:25:37.524Z,16.57
2023-01-23T06:28:05.703Z,17.10
2023-01-23T06:30:33.563Z,15.40
2023-01-23T06:33:01.552Z,17.00
2023-01-23T06:35:29.263Z,16.87
2023-01-23T06:37:56.982Z,15.47
2023-01-23T06:40:26.061Z,15.47
2023-01-23T06:42:56.603Z,15.93
2023-01-23T06:45:24.420Z,16.53
2023-01-23T06:47:52.923Z,16.10
2023-01-23T06:50:20.976Z,16.00
2023-01-23T06:52:50.042Z,16.63
2023-01-23T06:55:17.970Z,15.77
2023-01-23T06:57:47.039Z,17.20
2023-01-23T07:00:16.503Z,15.80
2023-01-23T07:02:45.727Z,16.20
2023-01-23T07:05:13.569Z,14.43
2023-01-23T07:07:41.261Z,15.83
2023-01-23T07:10:10.660Z,16.20
2023-01-23T07:12:38.398Z,16.37
2023-01-23T07:15:08.916Z,17.20
2023-01-23T07:17:36.618Z,15.67
2023-01-23T07:20:05.253Z,17.00
2023-01-23T07:22:32.971Z,16.47
2023-01-23T07:25:00.646Z,15.43
2023-01-23T07:27:28.483Z,15.43
2023-01-23T07:29:58.628Z,13.90
2023-01-23T07:32:27.779Z,14.47
2023-01-23T07:34:55.548Z,14.57
2023-01-23T07:37:25.088Z,14.27
2023-01-23T07:39:53.534Z,14.40
2023-01-23T07:42:21.252Z,15.60
2023-01-23T07:44:48.957Z,15.17
2023-01-23T07:47:16.667Z,13.97
2023-01-23T07:49:46.371Z,14.07
2023-01-23T07:52:14.103Z,14.93
2023-01-23T07:54:41.808Z,14.57
2023-01-23T07:57:09.529Z,15.10
2023-01-23T07:59:37.334Z,14.10
2023-01-23T08:02:05.032Z,14.07
2023-01-23T08:04:32.835Z,14.33
2023-01-23T08:07:01.960Z,13.33
2023-01-23T08:09:29.675Z,14.80
2023-01-23T08:11:57.445Z,14.63
2023-01-23T08:14:25.166Z,16.63
2023-01-23T08:16:53.444Z,17.20
2023-01-23T08:19:21.390Z,14.83
2023-01-23T08:21:49.108Z,14.07
2023-01-23T08:24:18.355Z,14.70
2023-01-23T08:26:46.070Z,15.13
2023-01-23T08:29:13.901Z,14.47
2023-01-23T08:31:41.703Z,13.93
2023-01-23T08:34:09.461Z,15.53
2023-01-23T08:36:37.237Z,16.73
2023-01-23T08:39:05.535Z,14.57
2023-01-23T08:41:34.649Z,15.50
2023-01-23T08:44:03.906Z,14.90
2023-01-23T08:46:31.675Z,15.93
2023-01-23T08:48:59.371Z,14.30
2023-01-23T08:51:27.788Z,13.57
2023-01-23T08:53:55.717Z,15.30
2023-01-23T08:56:24.871Z,15.07
2023-01-23T08:58:54.132Z,14.67
2023-01-23T09:01:23.717Z,15.20
2023-01-23T09:03:51.649Z,16.53
2023-01-23T09:06:20.958Z,15.93
2023-01-23T09:08:49.326Z,15.60
2023-01-23T09:11:17.507Z,15.10
2023-01-23T09:13:47.080Z,14.10
2023-01-23T09:16:17.073Z,13.67
2023-01-23T09:18:45.193Z,14.90
2023-01-23T09:21:15.614Z,14.33
2023-01-23T09:23:43.715Z,14.67
2023-01-23T09:26:13.254Z,15.03
2023-01-23T09:28:42.851Z,14.00
2023-01-23T09:31:13.507Z,13.33
2023-01-23T09:33:43.570Z,13.50
2023-01-23T09:36:11.912Z,13.23
2023-01-23T09:38:39.629Z,13.50
2023-01-23T09:41:16.130Z,13.67
2023-01-23T09:43:51.839Z,12.90
2023-01-23T09:46:23.761Z,12.97
2023-01-23T09:49:00.378Z,12.80
2023-01-23T09:51:31.945Z,14.87
2023-01-23T09:54:05.390Z,13.67
2023-01-23T09:56:38.424Z,14.23
2023-01-23T09:59:14.474Z,15.03
2023-01-23T10:01:42.399Z,17.03
2023-01-23T10:04:16.063Z,19.43
2023-01-23T10:07:06.157Z,21.80
2023-01-23T10:09:50.717Z,19.20
2023-01-23T10:12:33.581Z,15.70
2023-01-23T10:15:19.842Z,15.20
2023-01-23T10:17:58.358Z,14.23
2023-01-23T10:20:50.969Z,13.77
2023-01-23T10:23:33.999Z,12.73
2023-01-23T10:26:05.429Z,13.37
2023-01-23T10:28:38.277Z,13.83
2023-01-23T10:31:10.914Z,13.83
2023-01-23T10:33:45.424Z,12.20
2023-01-23T10:36:24.079Z,12.87
2023-01-23T10:39:00.403Z,13.33
2023-01-23T10:41:28.545Z,14.50
2023-01-23T10:43:58.093Z,13.53
2023-01-23T10:46:31.888Z,13.77
2023-01-23T10:49:02.250Z,12.87
2023-01-23T10:51:45.842Z,13.10
2023-01-23T10:54:30.798Z,14.33
2023-01-23T10:57:01.731Z,14.03
2023-01-23T10:59:33.006Z,14.77
2023-01-23T11:02:17.367Z,15.33
2023-01-23T11:04:46.917Z,13.33
2023-01-23T11:07:17.720Z,13.87
2023-01-23T11:09:54.631Z,14.43
2023-01-23T11:12:25.413Z,15.80
2023-01-23T11:15:11.825Z,12.40
2023-01-23T11:17:40.062Z,12.67
2023-01-23T11:20:22.429Z,12.80
2023-01-23T11:23:02.075Z,12.70
2023-01-23T11:25:33.037Z,13.33
2023-01-23T11:28:03.193Z,12.23
2023-01-23T11:30:54.190Z,12.97
2023-01-23T11:33:41.782Z,11.43
2023-01-23T11:36:29.977Z,12.30
2023-01-23T11:39:19.636Z,12.20
2023-01-23T11:41:47.930Z,12.50
2023-01-23T11:44:19.266Z,13.47
2023-01-23T11:47:14.609Z,13.07
2023-01-23T11:50:12.757Z,15.67
2023-01-23T11:52:50.126Z,23.17
2023-01-23T11:55:40.106Z,14.80
2023-01-23T11:58:20.060Z,14.70
2023-01-23T12:00:57.657Z,11.30
2023-01-23T12:04:17.059Z,11.17
2023-01-23T12:07:14.013Z,11.20
2023-01-23T12:09:51.227Z,11.47
2023-01-23T12:12:32.794Z,10.63
2023-01-23T12:15:08.359Z,11.10
2023-01-23T12:17:44.091Z,11.07
2023-01-23T12:20:25.202Z,10.43
2023-01-23T12:23:06.325Z,11.37
2023-01-23T12:25:36.585Z,11.17
2023-01-23T12:28:19.579Z,11.10
2023-01-23T12:30:58.593Z,11.77
2023-01-23T12:33:51.407Z,13.53
2023-01-23T12:36:37.284Z,11.50
2023-01-23T12:39:18.999Z,10.43
2023-01-23T12:41:51.589Z,10.20
2023-01-23T12:44:26.054Z,17.47
2023-01-23T12:47:00.378Z,17.93
2023-01-23T12:49:34.779Z,11.80
2023-01-23T12:52:07.549Z,10.37
2023-01-23T12:54:41.972Z,9.97
2023-01-23T12:57:12.071Z,9.73
2023-01-23T12:59:58.669Z,11.63
2023-01-23T13:02:37.272Z,10.37
2023-01-23T13:05:17.211Z,10.10
2023-01-23T13:07:54.280Z,9.77
2023-01-23T13:10:59.597Z,9.40
2023-01-23T13:13:28.567Z,10.07
2023-01-23T13:16:11.273Z,8.73
2023-01-23T13:18:53.948Z,8.87
2023-01-23T13:21:39.002Z,8.70
2023-01-23T13:24:49.289Z,8.90
2023-01-23T13:27:44.788Z,9.70
2023-01-23T13:30:44.170Z,9.20
2023-01-23T13:33:52.183Z,10.40
2023-01-23T13:36:39.860Z,8.30
2023-01-23T13:39:28.692Z,7.97
2023-01-23T13:42:34.483Z,8.47
2023-01-23T13:45:30.872Z,8.23
2023-01-23T14:20:39.457Z,10.80
2023-01-23T14:23:19.071Z,10.00
2023-01-23T14:25:46.962Z,9.43
2023-01-23T14:28:19.149Z,10.07
2023-01-23T14:31:08.390Z,9.00
2023-01-23T14:33:42.731Z,9.73
2023-01-23T14:36:17.105Z,9.80
2023-01-23T14:38:47.261Z,9.37
2023-01-23T14:41:16.742Z,9.60
2023-01-23T14:43:47.192Z,9.43
2023-01-23T14:46:19.829Z,9.77
2023-01-23T14:48:52.227Z,9.47
2023-01-23T14:51:22.820Z,9.00
2023-01-23T14:53:56.906Z,9.70
2023-01-23T14:56:28.685Z,9.97
2023-01-23T14:59:01.545Z,10.50
2023-01-23T15:01:29.996Z,14.70
2023-01-23T15:04:01.394Z,16.37
2023-01-23T15:06:30.793Z,11.33
2023-01-23T15:09:08.181Z,10.57
2023-01-23T15:11:36.294Z,11.03
2023-01-23T15:14:07.805Z,10.27
2023-01-23T15:16:38.155Z,17.87
2023-01-23T15:19:08.804Z,12.00
2023-01-23T15:21:39.707Z,14.27
2023-01-23T15:24:19.219Z,12.70
2023-01-23T15:26:57.896Z,12.17
2023-01-23T15:29:27.171Z,11.73
2023-01-23T15:31:56.256Z,12.63
2023-01-23T15:34:27.523Z,12.67
2023-01-23T15:36:59.811Z,13.57
2023-01-23T15:39:29.903Z,19.30
2023-01-23T15:42:00.120Z,28.30
2023-01-23T15:44:31.522Z,27.90
2023-01-23T15:47:01.177Z,21.67
2023-01-23T15:49:29.425Z,25.77
2023-01-23T15:51:58.522Z,15.20
2023-01-23T15:54:32.573Z,13.47
2023-01-23T15:57:07.654Z,19.00
2023-01-23T15:59:38.402Z,15.13
2023-01-23T16:02:08.262Z,20.27
2023-01-23T16:04:38.769Z,15.00
2023-01-23T16:07:08.242Z,14.83
2023-01-23T16:09:39.042Z,14.77
2023-01-23T16:12:07.150Z,12.70
2023-01-23T16:14:34.927Z,12.23
2023-01-23T16:17:15.982Z,13.83
2023-01-23T16:19:44.506Z,14.63
2023-01-23T16:22:15.476Z,13.70
2023-01-23T16:24:43.817Z,13.53
2023-01-23T16:27:17.997Z,12.83
2023-01-23T16:29:45.975Z,12.40
2023-01-23T16:32:15.313Z,12.23
2023-01-23T16:34:43.161Z,12.53
2023-01-23T16:37:16.297Z,11.57
2023-01-23T16:39:45.853Z,13.13
2023-01-23T16:42:18.545Z,12.83
2023-01-23T16:44:46.419Z,12.87
2023-01-23T16:47:15.541Z,12.47
2023-01-23T16:49:52.213Z,13.10
2023-01-23T16:52:24.562Z,12.40
2023-01-23T16:54:53.448Z,13.53
2023-01-23T16:57:22.197Z,11.87
2023-01-23T16:59:51.080Z,13.77
2023-01-23T17:02:23.882Z,14.07
2023-01-23T17:04:51.742Z,13.63
2023-01-23T17:07:20.355Z,13.50
2023-01-23T17:09:49.335Z,13.53
2023-01-23T17:12:20.890Z,11.57
2023-01-23T17:14:52.608Z,12.40
2023-01-23T17:17:28.862Z,12.80
2023-01-23T17:19:57.575Z,11.90
2023-01-23T17:22:30.421Z,15.13
2023-01-23T17:24:58.251Z,12.67
2023-01-23T17:27:26.094Z,13.83
2023-01-23T17:29:53.898Z,13.60
2023-01-23T17:32:30.446Z,11.73
2023-01-23T17:35:01.812Z,12.43
2023-01-23T17:37:30.713Z,12.83
2023-01-23T17:39:58.442Z,13.73
2023-01-23T17:42:26.353Z,15.80
2023-01-23T17:44:54.152Z,13.87
2023-01-23T17:47:22.058Z,14.07
2023-01-23T17:49:54.744Z,16.83
2023-01-23T17:52:24.839Z,16.90
2023-01-23T17:54:54.351Z,27.70
2023-01-23T17:57:22.367Z,17.80
2023-01-23T17:59:50.087Z,14.87
2023-01-23T18:02:28.165Z,13.33
2023-01-23T18:04:57.428Z,12.10
2023-01-23T18:07:25.195Z,16.37
2023-01-23T18:09:55.500Z,13.17
2023-01-23T18:12:31.480Z,13.30
2023-01-23T18:15:10.028Z,14.33
2023-01-23T18:17:46.187Z,16.77
2023-01-23T18:20:23.804Z,19.43
2023-01-23T18:22:52.187Z,18.63
2023-01-23T18:25:21.958Z,19.63
2023-01-23T18:27:54.330Z,21.40
2023-01-23T18:30:37.700Z,18.40
2023-01-23T18:33:18.153Z,16.17
2023-01-23T18:36:07.748Z,11.77
2023-01-23T18:38:47.610Z,11.87
2023-01-23T18:41:22.670Z,12.17
2023-01-23T18:43:54.808Z,11.60
2023-01-23T18:46:25.277Z,15.93
2023-01-23T18:48:53.927Z,15.97
2023-01-23T18:51:33.720Z,13.37
2023-01-23T18:54:13.141Z,11.87
2023-01-23T18:56:48.006Z,13.30
2023-01-23T18:59:23.627Z,12.30
2023-01-23T19:01:54.859Z,12.90
2023-01-23T19:04:32.117Z,13.90
2023-01-23T19:07:02.064Z,13.43
2023-01-23T19:09:34.533Z,11.10
2023-01-23T19:12:20.511Z,12.80
2023-01-23T19:15:06.197Z,12.63
2023-01-23T19:17:43.884Z,11.30
2023-01-23T19:20:23.076Z,11.53
2023-01-23T19:23:01.854Z,12.03
2023-01-23T19:25:30.450Z,11.83
2023-01-23T19:28:00.914Z,10.03
2023-01-23T19:30:29.516Z,12.30
2023-01-23T19:32:57.270Z,11.30
2023-01-23T19:35:25.042Z,14.63
2023-01-23T19:37:54.190Z,15.53
2023-01-23T19:40:21.911Z,12.20
2023-01-23T19:42:58.641Z,12.20
2023-01-23T19:45:33.853Z,11.00
2023-01-23T19:48:01.645Z,10.47
2023-01-23T19:50:29.558Z,14.90
2023-01-23T19:53:00.209Z,13.10
2023-01-23T19:55:30.985Z,9.50
2023-01-23T19:57:59.071Z,13.97
2023-01-23T20:00:31.939Z,17.40
2023-01-23T20:03:00.392Z,11.50
2023-01-23T20:05:28.495Z,10.50
2023-01-23T20:07:56.216Z,11.90
2023-01-23T20:10:25.329Z,11.80
2023-01-23T20:12:55.269Z,10.57
2023-01-23T20:15:26.070Z,12.57
2023-01-23T20:17:54.951Z,13.93
2023-01-23T20:20:23.233Z,13.00
2023-01-23T20:22:51.255Z,12.60
2023-01-23T20:25:19.477Z,12.10
2023-01-23T20:27:48.769Z,11.50
2023-01-23T20:30:19.912Z,12.17
2023-01-23T20:32:47.933Z,10.70
2023-01-23T20:35:15.718Z,12.07
2023-01-23T20:37:43.462Z,10.67
2023-01-23T20:40:12.446Z,10.07
2023-01-23T20:42:41.209Z,10.73
2023-01-23T20:45:11.244Z,10.70
2023-01-23T20:47:39.046Z,9.63
2023-01-23T20:50:07.446Z,10.30
2023-01-23T20:52:52.503Z,10.17
2023-01-23T20:55:20.689Z,10.20
2023-01-23T20:58:06.381Z,9.50
2023-01-23T21:00:35.482Z,9.10
2023-01-23T21:03:03.415Z,10.13
2023-01-23T21:05:31.335Z,9.57
2023-01-23T21:07:59.240Z,9.90
2023-01-23T21:10:27.021Z,9.70
2023-01-23T21:12:54.877Z,10.40
2023-01-23T21:15:23.216Z,9.90
2023-01-23T21:17:52.513Z,9.63
2023-01-23T21:20:20.388Z,10.47
2023-01-23T21:22:48.196Z,11.00
2023-01-23T21:25:15.993Z,10.07
2023-01-23T21:27:43.713Z,11.03
2023-01-23T21:30:12.524Z,10.20
2023-01-23T21:32:40.247Z,10.20
2023-01-23T21:35:10.310Z,10.03
2023-01-23T21:37:38.257Z,10.50
2023-01-23T21:40:07.341Z,10.00
2023-01-23T21:42:35.064Z,10.83
2023-01-23T21:45:02.827Z,11.43
2023-01-23T21:47:30.571Z,10.27
2023-01-23T21:49:58.345Z,10.37
2023-01-23T21:52:29.613Z,10.23
2023-01-23T21:54:57.480Z,9.03
2023-01-23T21:57:25.213Z,10.03
2023-01-23T22:00:06.890Z,9.80
2023-01-23T22:02:34.755Z,10.10
2023-01-23T22:05:02.575Z,10.00
2023-01-23T22:07:31.718Z,9.70
2023-01-23T22:09:59.483Z,10.60
2023-01-23T22:12:28.149Z,10.93
2023-01-23T22:14:56.731Z,10.20
2023-01-23T22:17:24.548Z,10.00
2023-01-23T22:19:52.329Z,10.53
2023-01-23T22:22:20.704Z,11.47
2023-01-23T22:24:49.917Z,11.67
2023-01-23T22:27:18.125Z,11.00
2023-01-23T22:29:45.970Z,11.07
2023-01-23T22:32:13.823Z,11.03
2023-01-23T22:34:41.585Z,11.17
2023-01-23T22:37:09.305Z,10.80
2023-01-23T22:39:37.046Z,10.77
2023-01-23T22:42:06.247Z,10.73
2023-01-23T22:44:34.279Z,11.13
2023-01-23T22:47:02.036Z,10.77
2023-01-23T22:49:29.937Z,10.30
2023-01-23T22:51:57.813Z,11.23
2023-01-23T22:54:25.553Z,11.60
2023-01-23T22:56:53.333Z,10.67
2023-01-23T22:59:22.506Z,10.47
2023-01-23T23:01:50.212Z,11.03
2023-01-23T23:04:17.966Z,10.40
2023-01-23T23:06:45.962Z,11.57
2023-01-23T23:09:13.689Z,11.00
2023-01-23T23:11:41.728Z,11.87
2023-01-23T23:14:11.108Z,10.80
2023-01-23T23:16:40.906Z,10.37
2023-01-23T23:19:09.891Z,10.60
2023-01-23T23:21:38.637Z,10.40
2023-01-23T23:24:08.932Z,11.30
2023-01-23T23:26:36.893Z,10.60
2023-01-23T23:29:05.396Z,10.77
2023-01-23T23:31:33.235Z,10.57
2023-01-23T23:34:02.552Z,10.23
2023-01-23T23:36:30.565Z,9.93
2023-01-23T23:38:58.319Z,10.57
2023-01-23T23:41:26.354Z,9.40
2023-01-23T23:43:54.133Z,9.97
2023-01-23T23:46:21.818Z,9.50
2023-01-23T23:48:49.558Z,9.73
2023-01-23T23:51:20.291Z,9.30
2023-01-23T23:53:49.146Z,9.07
2023-01-23T23:56:21.361Z,8.10
2023-01-23T23:58:49.271Z,8.17
